Time;durP1;ratioP1;P1;durP2;ratioP2;P2;SDS_P1;SDS_P2;PMS_P1;PMS_P2;Temp;Humidity;BMP_temperature;BMP_pressure;BME280_temperature;BME280_humidity;BME280_pressure;Samples;Min_cycle;Max_cycle;Signal;HPM_P1;HPM_P2
2023/06/10 00:01:48;;;;;;;6.75;2.63;;;;;;;;;;5095225;28;20497;-64
2023/06/10 00:04:16;;;;;;;8.63;2.75;;;;;;;;;;5110362;28;20027;-63
2023/06/10 00:06:45;;;;;;;8.68;3.05;;;;;;;;;;5110810;28;20481;-63
2023/06/10 00:09:10;;;;;;;8.85;3.25;;;;;;;;;;5095084;28;20068;-63
2023/06/10 00:11:37;;;;;;;11.88;3.08;;;;;;;;;;5094632;28;20048;-63
2023/06/10 00:14:03;;;;;;;10.15;3.35;;;;;;;;;;5094941;28;20035;-63
2023/06/10 00:16:28;;;;;;;8.48;3.13;;;;;;;;;;5094755;28;20033;-64
2023/06/10 00:19:01;;;;;;;9.68;2.97;;;;;;;;;;5094933;28;20127;-63
2023/06/10 00:21:30;;;;;;;10.02;3.13;;;;;;;;;;5094739;28;20024;-63
2023/06/10 00:23:56;;;;;;;12.93;3.30;;;;;;;;;;5094732;28;20115;-64
2023/06/10 00:26:22;;;;;;;9.40;3.10;;;;;;;;;;5094514;28;20104;-64
2023/06/10 00:28:48;;;;;;;7.55;2.83;;;;;;;;;;5094900;28;20071;-64
2023/06/10 00:31:14;;;;;;;8.00;2.70;;;;;;;;;;5094735;28;20024;-64
2023/06/10 00:33:39;;;;;;;7.78;2.67;;;;;;;;;;5094713;28;20035;-64
2023/06/10 00:36:05;;;;;;;9.35;3.13;;;;;;;;;;5094723;28;20107;-64
2023/06/10 00:38:31;;;;;;;8.05;2.65;;;;;;;;;;5097805;28;20491;-64
2023/06/10 00:40:57;;;;;;;10.60;2.80;;;;;;;;;;5114601;28;20145;-64
2023/06/10 00:43:22;;;;;;;10.30;3.25;;;;;;;;;;5114201;28;20107;-64
2023/06/10 00:45:48;;;;;;;8.10;2.92;;;;;;;;;;5114791;28;20015;-64
2023/06/10 00:48:14;;;;;;;11.98;3.30;;;;;;;;;;5114572;28;20110;-64
2023/06/10 00:50:39;;;;;;;9.15;3.05;;;;;;;;;;5103636;28;20023;-64
2023/06/10 00:53:05;;;;;;;9.75;2.90;;;;;;;;;;5094040;28;20051;-64
2023/06/10 00:55:32;;;;;;;7.78;2.88;;;;;;;;;;5094099;28;20359;-64
2023/06/10 00:57:58;;;;;;;8.10;2.80;;;;;;;;;;5094242;28;20048;-64
2023/06/10 01:00:24;;;;;;;7.35;2.92;;;;;;;;;;5093979;28;20107;-64
2023/06/10 01:02:52;;;;;;;7.40;2.85;;;;;;;;;;5097394;28;20046;-64
2023/06/10 01:05:18;;;;;;;10.48;3.13;;;;;;;;;;5114380;28;20050;-64
2023/06/10 01:07:57;;;;;;;8.13;2.85;;;;;;;;;;5102213;28;20031;-64
2023/06/10 01:10:26;;;;;;;10.25;3.28;;;;;;;;;;5093797;28;20049;-64
2023/06/10 01:13:13;;;;;;;7.45;2.70;;;;;;;;;;5093926;28;20126;-64
2023/06/10 01:15:39;;;;;;;6.82;2.70;;;;;;;;;;5093940;28;20024;-64
2023/06/10 01:18:09;;;;;;;9.57;3.03;;;;;;;;;;5093892;28;20374;-64
2023/06/10 01:20:36;;;;;;;9.98;2.88;;;;;;;;;;5093697;28;20040;-64
2023/06/10 01:23:03;;;;;;;5.95;2.55;;;;;;;;;;5093392;28;20024;-64
2023/06/10 01:25:29;;;;;;;9.80;3.00;;;;;;;;;;5093729;28;20378;-66
2023/06/10 01:28:27;;;;;;;7.55;2.85;;;;;;;;;;5093802;28;20379;-63
2023/06/10 01:31:04;;;;;;;8.65;2.90;;;;;;;;;;5093509;28;20362;-63
2023/06/10 01:33:37;;;;;;;8.10;2.63;;;;;;;;;;5093453;28;20462;-64
2023/06/10 01:36:03;;;;;;;7.00;2.67;;;;;;;;;;5093531;28;20035;-64
2023/06/10 01:38:33;;;;;;;9.38;2.83;;;;;;;;;;5096357;28;20026;-65
2023/06/10 01:41:00;;;;;;;10.35;3.08;;;;;;;;;;5113878;28;20055;-64
2023/06/10 01:43:26;;;;;;;7.00;2.80;;;;;;;;;;5113888;28;20538;-64
2023/06/10 01:45:51;;;;;;;9.35;3.10;;;;;;;;;;5113672;28;20027;-64
2023/06/10 01:48:17;;;;;;;11.23;3.15;;;;;;;;;;5113493;28;20040;-64
2023/06/10 01:50:43;;;;;;;7.93;2.70;;;;;;;;;;5101957;28;20074;-64
2023/06/10 01:53:09;;;;;;;10.85;3.25;;;;;;;;;;5091754;28;20036;-64
2023/06/10 01:55:34;;;;;;;13.02;5.40;;;;;;;;;;5092337;28;20022;-64
2023/06/10 01:58:00;;;;;;;10.75;4.38;;;;;;;;;;5093199;28;20384;-64
2023/06/10 02:00:25;;;;;;;8.77;3.88;;;;;;;;;;5092994;28;20474;-64
2023/06/10 02:02:51;;;;;;;12.13;3.90;;;;;;;;;;5096607;28;20103;-64
2023/06/10 02:05:16;;;;;;;9.15;3.90;;;;;;;;;;5113441;28;20034;-64
2023/06/10 02:07:42;;;;;;;7.68;3.28;;;;;;;;;;5101318;28;20115;-64
2023/06/10 02:10:07;;;;;;;9.77;3.33;;;;;;;;;;5093132;28;20024;-64
2023/06/10 02:12:33;;;;;;;8.38;3.17;;;;;;;;;;5092897;28;20427;-64
2023/06/10 02:14:58;;;;;;;7.05;2.75;;;;;;;;;;5092921;28;20016;-64
2023/06/10 02:17:24;;;;;;;8.25;2.72;;;;;;;;;;5092965;28;20107;-64
2023/06/10 02:19:52;;;;;;;5.05;2.47;;;;;;;;;;5092838;28;20059;-64
2023/06/10 02:22:22;;;;;;;7.63;2.85;;;;;;;;;;5092669;28;20048;-64
2023/06/10 02:24:48;;;;;;;8.32;3.00;;;;;;;;;;5092945;28;20020;-64
2023/06/10 02:27:15;;;;;;;9.38;2.33;;;;;;;;;;5092756;28;20051;-64
2023/06/10 02:29:41;;;;;;;6.80;2.80;;;;;;;;;;5092673;28;20028;-64
2023/06/10 02:32:07;;;;;;;10.55;2.35;;;;;;;;;;5092818;28;20028;-64
2023/06/10 02:34:33;;;;;;;6.32;3.00;;;;;;;;;;5092556;28;20028;-64
2023/06/10 02:36:59;;;;;;;5.82;2.28;;;;;;;;;;5090980;28;20376;-64
2023/06/10 02:39:25;;;;;;;5.63;2.40;;;;;;;;;;5103831;28;20093;-64
2023/06/10 02:41:51;;;;;;;10.38;2.83;;;;;;;;;;5113006;28;20489;-64
2023/06/10 02:44:18;;;;;;;6.63;2.75;;;;;;;;;;5113073;28;20023;-64
2023/06/10 02:46:43;;;;;;;9.73;2.85;;;;;;;;;;5113138;28;20073;-64
2023/06/10 02:49:09;;;;;;;8.25;2.80;;;;;;;;;;5112811;28;20044;-64
2023/06/10 02:51:35;;;;;;;7.93;3.03;;;;;;;;;;5093618;28;20032;-64
2023/06/10 02:54:01;;;;;;;11.40;2.70;;;;;;;;;;5092586;28;20035;-64
2023/06/10 02:56:27;;;;;;;9.13;2.63;;;;;;;;;;5092666;28;20042;-64
2023/06/10 02:58:52;;;;;;;8.70;2.95;;;;;;;;;;5092486;28;20465;-64
2023/06/10 03:01:18;;;;;;;9.18;2.80;;;;;;;;;;5092363;28;20032;-64
2023/06/10 03:03:46;;;;;;;7.18;2.50;;;;;;;;;;5103303;28;20101;-64
2023/06/10 03:06:12;;;;;;;11.85;2.70;;;;;;;;;;5112510;28;20023;-64
2023/06/10 03:08:38;;;;;;;11.43;2.90;;;;;;;;;;5097000;28;20113;-64
2023/06/10 03:11:04;;;;;;;6.53;2.75;;;;;;;;;;5096326;28;20074;-64
2023/06/10 03:13:29;;;;;;;8.63;2.90;;;;;;;;;;5096165;28;20064;-64
2023/06/10 03:15:54;;;;;;;6.28;2.60;;;;;;;;;;5096216;28;20024;-64
2023/06/10 03:18:20;;;;;;;7.60;2.50;;;;;;;;;;5096007;28;20273;-64
2023/06/10 03:20:46;;;;;;;7.93;2.60;;;;;;;;;;5095831;28;20039;-64
2023/06/10 03:23:11;;;;;;;5.00;2.50;;;;;;;;;;5096028;28;20077;-64
2023/06/10 03:25:37;;;;;;;9.43;2.60;;;;;;;;;;5095949;28;20536;-64
2023/06/10 03:28:02;;;;;;;6.78;2.58;;;;;;;;;;5095934;28;20085;-64
2023/06/10 03:30:28;;;;;;;6.32;2.65;;;;;;;;;;5095870;28;20111;-64
2023/06/10 03:32:54;;;;;;;13.15;3.13;;;;;;;;;;5095850;28;20423;-64
2023/06/10 03:35:19;;;;;;;6.50;2.70;;;;;;;;;;5095360;28;20031;-64
2023/06/10 03:37:45;;;;;;;8.38;2.55;;;;;;;;;;5095582;28;20020;-64
2023/06/10 03:40:11;;;;;;;7.82;2.70;;;;;;;;;;5113131;28;20397;-64
2023/06/10 03:42:36;;;;;;;6.95;2.50;;;;;;;;;;5116000;28;20039;-64
2023/06/10 03:45:02;;;;;;;7.93;3.08;;;;;;;;;;5116003;28;20099;-64
2023/06/10 03:47:36;;;;;;;7.82;2.55;;;;;;;;;;5115965;28;20044;-64
2023/06/10 03:50:03;;;;;;;6.40;2.50;;;;;;;;;;5109630;28;20556;-64
2023/06/10 03:52:29;;;;;;;5.43;2.45;;;;;;;;;;5095632;28;20401;-64
2023/06/10 03:54:55;;;;;;;8.38;2.72;;;;;;;;;;5095781;28;20020;-64
2023/06/10 03:57:20;;;;;;;5.63;2.58;;;;;;;;;;5095600;28;20426;-64
2023/06/10 03:59:45;;;;;;;6.65;2.85;;;;;;;;;;5095129;28;20335;-64
2023/06/10 04:02:11;;;;;;;9.77;2.67;;;;;;;;;;5095477;28;20020;-64
2023/06/10 04:04:37;;;;;;;9.02;2.97;;;;;;;;;;5113335;28;20084;-64
2023/06/10 04:07:04;;;;;;;7.88;2.72;;;;;;;;;;5109092;28;20380;-64
2023/06/10 04:09:29;;;;;;;7.60;2.45;;;;;;;;;;5095228;28;20104;-64
2023/06/10 04:11:54;;;;;;;157.65;10.98;;;;;;;;;;5095174;28;20477;-63
2023/06/10 04:14:20;;;;;;;6.15;2.70;;;;;;;;;;5093667;28;20043;-64
2023/06/10 04:16:45;;;;;;;5.63;2.63;;;;;;;;;;5095045;28;20032;-63
2023/06/10 04:19:11;;;;;;;7.05;2.65;;;;;;;;;;5093662;28;20035;-64
2023/06/10 04:21:36;;;;;;;8.77;2.63;;;;;;;;;;5094951;28;20039;-64
2023/06/10 04:24:02;;;;;;;9.18;2.65;;;;;;;;;;5094630;28;20615;-64
2023/06/10 04:26:27;;;;;;;6.50;2.42;;;;;;;;;;5094906;28;20107;-64
2023/06/10 04:28:53;;;;;;;8.45;2.80;;;;;;;;;;5094719;28;20027;-63
2023/06/10 04:31:19;;;;;;;9.63;2.60;;;;;;;;;;5094152;28;20466;-64
2023/06/10 04:33:44;;;;;;;9.85;3.15;;;;;;;;;;5094507;28;20028;-64
2023/06/10 04:36:10;;;;;;;8.38;2.80;;;;;;;;;;5094563;28;20036;-64
2023/06/10 04:38:36;;;;;;;5.63;2.25;;;;;;;;;;5098550;28;20385;-64
2023/06/10 04:41:02;;;;;;;8.60;2.72;;;;;;;;;;5114746;28;20110;-64
2023/06/10 04:43:28;;;;;;;7.10;2.65;;;;;;;;;;5114880;27;20103;-64
2023/06/10 04:45:54;;;;;;;6.60;2.90;;;;;;;;;;5114463;28;20027;-63
2023/06/10 04:48:19;;;;;;;8.73;2.90;;;;;;;;;;5114422;28;20043;-64
2023/06/10 04:50:45;;;;;;;8.70;2.75;;;;;;;;;;5102293;28;20024;-64
2023/06/10 04:53:11;;;;;;;5.93;2.50;;;;;;;;;;5093933;28;20020;-63
2023/06/10 04:55:36;;;;;;;6.15;2.50;;;;;;;;;;5094230;28;20036;-63
2023/06/10 04:58:01;;;;;;;9.27;2.88;;;;;;;;;;5094185;28;20370;-64
2023/06/10 05:00:27;;;;;;;5.30;2.80;;;;;;;;;;5093565;28;20028;-63
2023/06/10 05:02:53;;;;;;;7.90;2.53;;;;;;;;;;5097713;28;20103;-63
2023/06/10 05:05:18;;;;;;;6.00;2.50;;;;;;;;;;5114320;28;20130;-64
2023/06/10 05:07:44;;;;;;;7.53;2.95;;;;;;;;;;5102071;28;20445;-64
2023/06/10 05:10:11;;;;;;;6.60;2.70;;;;;;;;;;5093748;28;20078;-64
2023/06/10 05:12:38;;;;;;;10.77;3.00;;;;;;;;;;5093659;28;20024;-64
2023/06/10 05:15:05;;;;;;;7.55;3.17;;;;;;;;;;5093403;28;20111;-63
2023/06/10 05:17:30;;;;;;;7.38;2.85;;;;;;;;;;5093476;28;20035;-64
2023/06/10 05:19:56;;;;;;;10.07;3.53;;;;;;;;;;5093639;28;20028;-63
2023/06/10 05:22:23;;;;;;;7.43;2.92;;;;;;;;;;5093674;28;20031;-64
2023/06/10 05:24:49;;;;;;;7.45;3.08;;;;;;;;;;5093554;28;20035;-64
2023/06/10 05:27:15;;;;;;;11.10;3.38;;;;;;;;;;5093580;28;20024;-63
2023/06/10 05:29:40;;;;;;;6.18;2.75;;;;;;;;;;5092982;28;20028;-63
2023/06/10 05:32:06;;;;;;;7.13;2.78;;;;;;;;;;5093403;28;20111;-65
2023/06/10 05:34:32;;;;;;;9.63;3.25;;;;;;;;;;5093517;28;20114;-64
2023/06/10 05:36:57;;;;;;;5.38;2.58;;;;;;;;;;5093194;28;20020;-64
2023/06/10 05:39:23;;;;;;;9.02;3.30;;;;;;;;;;5104213;28;20027;-64
2023/06/10 05:41:48;;;;;;;6.65;2.63;;;;;;;;;;5113392;28;20381;-64
2023/06/10 05:44:14;;;;;;;10.32;2.90;;;;;;;;;;5113648;27;20413;-64
2023/06/10 05:46:39;;;;;;;7.47;3.03;;;;;;;;;;5113649;28;20024;-64
2023/06/10 05:49:04;;;;;;;10.70;3.38;;;;;;;;;;5113376;28;20039;-64
2023/06/10 05:51:30;;;;;;;9.77;3.40;;;;;;;;;;5095292;28;20016;-64
2023/06/10 05:53:55;;;;;;;12.65;3.35;;;;;;;;;;5093148;28;20039;-63
2023/06/10 05:56:25;;;;;;;8.50;3.00;;;;;;;;;;5093074;28;20115;-64
2023/06/10 05:58:51;;;;;;;8.30;3.53;;;;;;;;;;5092750;28;20028;-64
2023/06/10 06:01:17;;;;;;;13.98;3.35;;;;;;;;;;5092617;28;20481;-64
2023/06/10 06:03:42;;;;;;;8.55;4.05;;;;;;;;;;5103509;28;20032;-64
2023/06/10 06:06:07;;;;;;;6.15;2.97;;;;;;;;;;5113333;28;20016;-64
2023/06/10 06:08:33;;;;;;;8.05;3.33;;;;;;;;;;5094364;28;20365;-64
2023/06/10 06:10:58;;;;;;;8.98;3.40;;;;;;;;;;5092961;28;20102;-64
2023/06/10 06:13:24;;;;;;;9.88;3.22;;;;;;;;;;5092464;28;20028;-64
2023/06/10 06:15:50;;;;;;;9.20;3.60;;;;;;;;;;5092726;28;20024;-64
2023/06/10 06:18:15;;;;;;;9.57;3.40;;;;;;;;;;5092932;28;20036;-64
2023/06/10 06:20:41;;;;;;;8.20;3.47;;;;;;;;;;5092795;28;20077;-64
2023/06/10 06:23:09;;;;;;;8.60;3.70;;;;;;;;;;5089660;28;20091;-65
2023/06/10 06:25:35;;;;;;;7.30;3.10;;;;;;;;;;5081299;28;20020;-65
2023/06/10 06:28:01;;;;;;;13.45;4.45;;;;;;;;;;5072315;28;20477;-64
2023/06/10 06:30:26;;;;;;;10.32;4.22;;;;;;;;;;5072175;28;20104;-65
2023/06/10 06:32:52;;;;;;;6.63;3.55;;;;;;;;;;5072354;28;20017;-64
2023/06/10 06:35:17;;;;;;;8.70;3.95;;;;;;;;;;5072544;28;20066;-64
2023/06/10 06:37:43;;;;;;;9.13;3.60;;;;;;;;;;5083083;28;20378;-64
2023/06/10 06:40:08;;;;;;;10.95;3.60;;;;;;;;;;5109795;28;20084;-64
2023/06/10 06:42:34;;;;;;;5.80;3.08;;;;;;;;;;5115016;28;20080;-65
2023/06/10 06:44:59;;;;;;;7.97;3.70;;;;;;;;;;5117194;28;20358;-64
2023/06/10 06:47:26;;;;;;;8.07;3.38;;;;;;;;;;5116961;28;20496;-65
2023/06/10 06:49:51;;;;;;;7.43;3.25;;;;;;;;;;5112284;28;20106;-65
2023/06/10 06:52:17;;;;;;;9.50;3.83;;;;;;;;;;5096260;28;20048;-65
2023/06/10 06:54:42;;;;;;;9.88;4.43;;;;;;;;;;5096407;28;20036;-64
2023/06/10 06:57:08;;;;;;;12.05;3.80;;;;;;;;;;5096255;28;20034;-64
2023/06/10 06:59:33;;;;;;;6.90;3.85;;;;;;;;;;5096567;28;20508;-64
2023/06/10 07:01:59;;;;;;;7.95;3.58;;;;;;;;;;5096394;28;20035;-64
2023/06/10 07:04:24;;;;;;;11.35;4.35;;;;;;;;;;5111481;28;20020;-65
2023/06/10 07:06:50;;;;;;;10.13;4.10;;;;;;;;;;5100827;28;20024;-64
2023/06/10 07:09:16;;;;;;;7.93;3.70;;;;;;;;;;5096213;28;20028;-66
2023/06/10 07:11:41;;;;;;;7.50;4.05;;;;;;;;;;5095870;28;20479;-66
2023/06/10 07:14:07;;;;;;;9.13;4.18;;;;;;;;;;5082025;28;20036;-66
2023/06/10 07:16:32;;;;;;;9.27;3.90;;;;;;;;;;5084137;28;20109;-65
2023/06/10 07:18:58;;;;;;;10.18;4.50;;;;;;;;;;5092784;28;20477;-66
2023/06/10 07:21:23;;;;;;;7.55;4.07;;;;;;;;;;5092468;28;20065;-66
2023/06/10 07:23:52;;;;;;;8.38;4.07;;;;;;;;;;5095619;28;20392;-66
2023/06/10 07:26:17;;;;;;;10.90;4.65;;;;;;;;;;5095496;28;20024;-66
2023/06/10 07:28:43;;;;;;;7.93;4.20;;;;;;;;;;5095719;28;20035;-66
2023/06/10 07:31:09;;;;;;;10.27;4.20;;;;;;;;;;5099795;28;20034;-65
2023/06/10 07:33:34;;;;;;;11.35;4.45;;;;;;;;;;5116150;28;20026;-66
2023/06/10 07:36:00;;;;;;;8.65;3.53;;;;;;;;;;5115736;28;20047;-66
2023/06/10 07:38:26;;;;;;;8.40;4.35;;;;;;;;;;5101662;28;20035;-66
2023/06/10 07:40:52;;;;;;;8.18;4.47;;;;;;;;;;5099670;28;20024;-66
2023/06/10 07:43:17;;;;;;;8.45;4.45;;;;;;;;;;5095227;28;20358;-66
2023/06/10 07:45:43;;;;;;;8.35;3.83;;;;;;;;;;5095281;28;20028;-65
2023/06/10 07:48:09;;;;;;;9.57;4.80;;;;;;;;;;5095213;28;20044;-66
2023/06/10 07:50:34;;;;;;;6.13;4.00;;;;;;;;;;5095090;28;20016;-66
2023/06/10 07:53:00;;;;;;;7.13;4.20;;;;;;;;;;5095018;28;20491;-66
2023/06/10 07:55:26;;;;;;;9.18;4.10;;;;;;;;;;5095117;28;20102;-66
2023/06/10 07:57:52;;;;;;;6.65;4.25;;;;;;;;;;5094015;28;20031;-67
2023/06/10 08:00:18;;;;;;;10.40;4.18;;;;;;;;;;5095273;28;20074;-64
2023/06/10 08:02:43;;;;;;;8.63;3.90;;;;;;;;;;5095005;28;20419;-66
2023/06/10 08:05:09;;;;;;;7.07;4.35;;;;;;;;;;5094741;28;20103;-66
2023/06/10 08:07:35;;;;;;;10.82;4.05;;;;;;;;;;5094954;28;20058;-65
2023/06/10 08:10:01;;;;;;;6.97;4.25;;;;;;;;;;5094488;28;20028;-66
2023/06/10 08:12:26;;;;;;;6.35;3.85;;;;;;;;;;5094844;28;20036;-66
2023/06/10 08:14:52;;;;;;;9.63;4.35;;;;;;;;;;5094990;28;20407;-66
2023/06/10 08:17:17;;;;;;;6.93;4.03;;;;;;;;;;5094826;28;20420;-66
2023/06/10 08:19:42;;;;;;;9.70;4.50;;;;;;;;;;5094763;28;20024;-64
2023/06/10 08:22:08;;;;;;;6.57;4.40;;;;;;;;;;5094739;28;20035;-65
2023/06/10 08:24:33;;;;;;;13.38;3.80;;;;;;;;;;5093976;28;20028;-64
2023/06/10 08:26:59;;;;;;;7.03;4.10;;;;;;;;;;5094208;28;20031;-65
2023/06/10 08:29:25;;;;;;;11.05;4.32;;;;;;;;;;5094366;28;20024;-65
2023/06/10 08:31:50;;;;;;;8.60;4.07;;;;;;;;;;5094429;28;20035;-66
2023/06/10 08:34:16;;;;;;;9.52;4.35;;;;;;;;;;5094427;28;20166;-65
2023/06/10 08:36:41;;;;;;;6.15;3.83;;;;;;;;;;5094406;28;20047;-65
2023/06/10 08:39:07;;;;;;;6.60;3.92;;;;;;;;;;5102431;28;20097;-65
2023/06/10 08:41:40;;;;;;;11.73;4.00;;;;;;;;;;5114686;28;20023;-64
2023/06/10 08:44:08;;;;;;;7.72;4.03;;;;;;;;;;5114624;28;20043;-66
2023/06/10 08:46:36;;;;;;;6.90;4.20;;;;;;;;;;5114473;28;20028;-65
2023/06/10 08:49:06;;;;;;;12.25;4.20;;;;;;;;;;5114157;28;20048;-66
2023/06/10 08:51:34;;;;;;;7.60;4.35;;;;;;;;;;5095780;28;20056;-65
2023/06/10 08:54:13;;;;;;;8.68;4.40;;;;;;;;;;5093743;28;20047;-65
2023/06/10 08:56:40;;;;;;;5.88;4.00;;;;;;;;;;5094148;28;20060;-65
2023/06/10 08:59:06;;;;;;;5.90;4.07;;;;;;;;;;5091904;28;20106;-64
2023/06/10 09:01:31;;;;;;;9.52;4.50;;;;;;;;;;5083422;28;20060;-64
2023/06/10 09:03:59;;;;;;;9.45;5.18;;;;;;;;;;5106053;28;20062;-64
2023/06/10 09:06:25;;;;;;;8.30;4.13;;;;;;;;;;5108129;28;20381;-64
2023/06/10 09:08:51;;;;;;;6.47;3.95;;;;;;;;;;5093461;28;20028;-64
2023/06/10 09:11:16;;;;;;;6.70;3.67;;;;;;;;;;5093647;28;20012;-64
2023/06/10 09:13:42;;;;;;;6.32;3.78;;;;;;;;;;5093583;28;20028;-64
2023/06/10 09:16:07;;;;;;;6.43;3.80;;;;;;;;;;5093567;28;20101;-64
2023/06/10 09:18:34;;;;;;;6.65;3.70;;;;;;;;;;5093601;28;20035;-64
2023/06/10 09:21:00;;;;;;;5.15;3.42;;;;;;;;;;5093827;28;20028;-66
2023/06/10 09:23:26;;;;;;;8.05;3.50;;;;;;;;;;5092313;28;20035;-64
2023/06/10 09:25:58;;;;;;;8.55;3.75;;;;;;;;;;5093344;28;20103;-63
2023/06/10 09:28:24;;;;;;;8.18;4.00;;;;;;;;;;5092904;28;20534;-66
2023/06/10 09:30:50;;;;;;;10.02;3.70;;;;;;;;;;5093877;28;20027;-63
2023/06/10 09:33:16;;;;;;;6.35;3.72;;;;;;;;;;5092563;28;20028;-64
2023/06/10 09:35:47;;;;;;;5.25;3.38;;;;;;;;;;5093793;28;20024;-66
2023/06/10 09:38:13;;;;;;;10.77;3.55;;;;;;;;;;5093985;28;20024;-64
2023/06/10 09:40:50;;;;;;;5.88;3.85;;;;;;;;;;5113629;28;20070;-64
2023/06/10 09:43:15;;;;;;;7.55;3.50;;;;;;;;;;5113642;28;20520;-66
2023/06/10 09:45:43;;;;;;;9.25;3.78;;;;;;;;;;5113522;28;20028;-64
2023/06/10 09:48:08;;;;;;;8.75;3.58;;;;;;;;;;5112762;28;20047;-64
2023/06/10 09:50:34;;;;;;;5.43;3.45;;;;;;;;;;5102506;28;20359;-66
2023/06/10 09:53:02;;;;;;;5.70;3.67;;;;;;;;;;5092962;28;20423;-63
2023/06/10 09:55:27;;;;;;;7.65;3.70;;;;;;;;;;5092945;28;20390;-64
2023/06/10 09:57:54;;;;;;;5.88;3.58;;;;;;;;;;5092892;28;20027;-63
2023/06/10 10:00:22;;;;;;;4.40;3.30;;;;;;;;;;5092881;28;20031;-63
2023/06/10 10:02:50;;;;;;;6.05;3.42;;;;;;;;;;5096143;28;20122;-64
2023/06/10 10:05:16;;;;;;;5.35;3.55;;;;;;;;;;5112918;28;20084;-64
2023/06/10 10:07:43;;;;;;;5.85;3.53;;;;;;;;;;5105377;28;20039;-64
2023/06/10 10:10:09;;;;;;;8.73;3.90;;;;;;;;;;5092615;28;20547;-64
2023/06/10 10:12:36;;;;;;;9.82;3.25;;;;;;;;;;5092737;28;20024;-64
2023/06/10 10:15:02;;;;;;;4.32;3.10;;;;;;;;;;5092640;28;20028;-64
2023/06/10 10:17:29;;;;;;;6.72;3.20;;;;;;;;;;5091817;28;20111;-64
2023/06/10 10:20:00;;;;;;;6.20;3.08;;;;;;;;;;5092432;28;20028;-64
2023/06/10 10:22:30;;;;;;;5.10;3.33;;;;;;;;;;5092789;28;20104;-64
2023/06/10 10:25:02;;;;;;;6.30;3.30;;;;;;;;;;5092310;28;20093;-63
2023/06/10 10:27:33;;;;;;;3.17;2.63;;;;;;;;;;5092492;28;20085;-64
2023/06/10 10:29:59;;;;;;;8.32;3.40;;;;;;;;;;5092480;28;20020;-64
2023/06/10 10:32:34;;;;;;;3.85;2.97;;;;;;;;;;5092539;28;20020;-64
2023/06/10 10:35:17;;;;;;;4.07;3.20;;;;;;;;;;5092143;28;20115;-64
2023/06/10 10:37:43;;;;;;;4.10;3.10;;;;;;;;;;5092279;28;20436;-64
2023/06/10 10:40:10;;;;;;;5.10;3.20;;;;;;;;;;5109638;28;20027;-64
2023/06/10 10:42:36;;;;;;;5.18;2.95;;;;;;;;;;5112818;28;20077;-64
2023/06/10 10:45:02;;;;;;;6.50;3.03;;;;;;;;;;5112442;28;20383;-64
2023/06/10 10:47:30;;;;;;;4.88;3.10;;;;;;;;;;5112637;28;20529;-64
2023/06/10 10:49:59;;;;;;;5.32;2.67;;;;;;;;;;5107164;28;20034;-66
2023/06/10 10:52:25;;;;;;;3.40;2.95;;;;;;;;;;5092334;28;20020;-64
2023/06/10 10:54:53;;;;;;;6.38;2.60;;;;;;;;;;5092294;28;20028;-64
2023/06/10 10:57:23;;;;;;;6.20;2.80;;;;;;;;;;5092359;28;20020;-65
2023/06/10 10:59:48;;;;;;;3.85;2.70;;;;;;;;;;5091231;28;20028;-65
2023/06/10 11:02:18;;;;;;;4.93;2.95;;;;;;;;;;5092124;28;20055;-65
2023/06/10 11:04:46;;;;;;;;;;;;;;;;;;5111356;28;20334;-65
2023/06/10 11:07:15;;;;;;;3.57;2.60;;;;;;;;;;5109227;28;19920;-65
2023/06/10 11:10:07;;;;;;;4.85;2.83;;;;;;;;;;5091878;28;20028;-65
2023/06/10 11:12:45;;;;;;;7.05;2.50;;;;;;;;;;5108997;28;20476;-65
2023/06/10 11:15:18;;;;;;;6.75;2.70;;;;;;;;;;5098263;28;20072;-64
2023/06/10 11:18:12;;;;;;;4.03;2.30;;;;;;;;;;5100082;28;20035;-65
2023/06/10 11:20:57;;;;;;;3.92;2.80;;;;;;;;;;5092006;28;20028;-65
2023/06/10 11:23:30;;;;;;;4.28;2.80;;;;;;;;;;5093311;28;20059;-66
2023/06/10 11:26:33;;;;;;;3.95;2.90;;;;;;;;;;5112370;28;20031;-65
2023/06/10 11:28:59;;;;;;;3.67;2.70;;;;;;;;;;5114641;28;20036;-63
2023/06/10 11:31:32;;;;;;;6.10;3.22;;;;;;;;;;5116081;28;20050;-63
2023/06/10 11:34:04;;;;;;;5.05;3.00;;;;;;;;;;5115585;28;20028;-63
2023/06/10 11:36:29;;;;;;;3.17;2.67;;;;;;;;;;5115448;28;20019;-65
2023/06/10 11:39:00;;;;;;;3.13;2.60;;;;;;;;;;5102317;28;20384;-66
2023/06/10 11:41:26;;;;;;;5.13;3.03;;;;;;;;;;5115996;28;20031;-63
2023/06/10 11:43:53;;;;;;;5.22;2.83;;;;;;;;;;5115795;28;20035;-63
2023/06/10 11:46:18;;;;;;;4.28;2.75;;;;;;;;;;5115520;28;20036;-62
2023/06/10 11:48:54;;;;;;;4.30;2.80;;;;;;;;;;5115420;28;20042;-63
2023/06/10 11:51:20;;;;;;;4.85;3.08;;;;;;;;;;5098522;28;20036;-66
2023/06/10 11:53:49;;;;;;;4.85;3.00;;;;;;;;;;5095183;28;20031;-64
2023/06/10 11:56:25;;;;;;;6.47;3.00;;;;;;;;;;5097951;28;20116;-64
2023/06/10 11:59:07;;;;;;;5.13;2.80;;;;;;;;;;5107063;27;20055;-64
2023/06/10 12:01:37;;;;;;;4.00;2.85;;;;;;;;;;5108666;28;20489;-63
2023/06/10 12:04:06;;;;;;;7.28;2.88;;;;;;;;;;5097010;28;20362;-64
2023/06/10 12:06:47;;;;;;;4.43;2.92;;;;;;;;;;5115024;28;20035;-63
2023/06/10 12:09:22;;;;;;;3.95;2.78;;;;;;;;;;5095055;28;20028;-64
2023/06/10 12:11:54;;;;;;;3.88;2.78;;;;;;;;;;5094970;28;20474;-64
2023/06/10 12:14:54;;;;;;;7.03;3.03;;;;;;;;;;5094728;28;20111;-64
2023/06/10 12:17:22;;;;;;;6.00;2.90;;;;;;;;;;5094459;28;20024;-64
2023/06/10 12:19:48;;;;;;;13.65;7.57;;;;;;;;;;5094713;28;20020;-64
2023/06/10 12:22:13;;;;;;;4.53;2.90;;;;;;;;;;5094788;28;20031;-64
2023/06/10 12:25:06;;;;;;;6.85;2.83;;;;;;;;;;5094436;28;20374;-63
2023/06/10 12:27:33;;;;;;;8.82;3.22;;;;;;;;;;5091759;28;20386;-64
2023/06/10 12:30:04;;;;;;;7.72;3.00;;;;;;;;;;5093027;28;20073;-64
2023/06/10 12:32:37;;;;;;;4.50;2.88;;;;;;;;;;5094401;28;20104;-64
2023/06/10 12:35:04;;;;;;;4.72;3.03;;;;;;;;;;5094465;28;20032;-64
2023/06/10 12:37:30;;;;;;;4.50;2.70;;;;;;;;;;5094254;28;20036;-64
2023/06/10 12:39:56;;;;;;;7.25;2.90;;;;;;;;;;5108526;28;20027;-64
2023/06/10 12:42:23;;;;;;;5.03;2.78;;;;;;;;;;5114732;28;20353;-64
2023/06/10 12:44:53;;;;;;;6.55;2.85;;;;;;;;;;5114383;28;20034;-64
2023/06/10 12:47:18;;;;;;;4.55;2.70;;;;;;;;;;5114173;28;20063;-64
2023/06/10 12:49:44;;;;;;;4.72;3.05;;;;;;;;;;5110930;28;20047;-64
2023/06/10 12:52:09;;;;;;;7.20;3.58;;;;;;;;;;5094096;28;20069;-64
2023/06/10 12:54:35;;;;;;;4.20;2.90;;;;;;;;;;5093960;28;20035;-65
2023/06/10 12:57:01;;;;;;;7.38;3.13;;;;;;;;;;5094005;28;20024;-64
2023/06/10 12:59:27;;;;;;;3.88;2.65;;;;;;;;;;5093614;28;20378;-63
2023/06/10 13:01:55;;;;;;;5.28;2.83;;;;;;;;;;5110449;28;20371;-63
2023/06/10 13:04:21;;;;;;;11.10;4.20;;;;;;;;;;5114204;28;20080;-63
2023/06/10 13:06:47;;;;;;;6.80;3.97;;;;;;;;;;5113827;28;20403;-64
2023/06/10 13:09:16;;;;;;;6.70;3.50;;;;;;;;;;5093883;27;20062;-64
2023/06/10 13:11:42;;;;;;;9.18;4.53;;;;;;;;;;5093686;28;20497;-63
2023/06/10 13:14:08;;;;;;;8.02;3.75;;;;;;;;;;5093510;28;20115;-64
2023/06/10 13:16:33;;;;;;;8.90;3.03;;;;;;;;;;5093898;28;20418;-64
2023/06/10 13:19:00;;;;;;;5.93;3.00;;;;;;;;;;5093523;28;20058;-63
2023/06/10 13:21:26;;;;;;;10.88;3.40;;;;;;;;;;5094181;28;20028;-65
2023/06/10 13:23:52;;;;;;;5.75;3.60;;;;;;;;;;5093280;28;20453;-64
2023/06/10 13:26:17;;;;;;;4.63;3.33;;;;;;;;;;5093142;28;20024;-64
2023/06/10 13:28:43;;;;;;;7.03;3.35;;;;;;;;;;5093232;28;20031;-64
2023/06/10 13:31:09;;;;;;;8.63;2.85;;;;;;;;;;5093396;28;20020;-65
2023/06/10 13:33:34;;;;;;;4.57;3.10;;;;;;;;;;5093451;28;20430;-65
2023/06/10 13:35:59;;;;;;;5.65;3.67;;;;;;;;;;5093188;28;20436;-65
2023/06/10 13:38:25;;;;;;;8.32;3.72;;;;;;;;;;5096036;28;20035;-66
2023/06/10 13:40:51;;;;;;;4.82;3.15;;;;;;;;;;5113856;28;20020;-65
2023/06/10 13:43:17;;;;;;;5.78;3.00;;;;;;;;;;5113298;28;20149;-65
2023/06/10 13:45:42;;;;;;;7.28;3.45;;;;;;;;;;5084750;28;20048;-65
2023/06/10 13:48:08;;;;;;;5.45;3.45;;;;;;;;;;5072833;28;20157;-65
2023/06/10 13:50:34;;;;;;;6.32;3.83;;;;;;;;;;5082727;28;20023;-65
2023/06/10 13:52:59;;;;;;;4.63;2.97;;;;;;;;;;5092999;28;20107;-66
2023/06/10 13:55:25;;;;;;;7.70;3.15;;;;;;;;;;5093097;28;20110;-65
2023/06/10 13:57:50;;;;;;;4.35;2.80;;;;;;;;;;5092831;28;20031;-65
2023/06/10 14:00:16;;;;;;;4.07;2.60;;;;;;;;;;5093032;28;20031;-65
2023/06/10 14:02:42;;;;;;;5.88;3.40;;;;;;;;;;5092850;28;20032;-66
2023/06/10 14:05:08;;;;;;;4.97;3.00;;;;;;;;;;5092795;28;20035;-66
2023/06/10 14:07:34;;;;;;;5.70;3.40;;;;;;;;;;5091968;28;20020;-66
2023/06/10 14:09:59;;;;;;;4.75;3.35;;;;;;;;;;5092453;28;20032;-65
2023/06/10 14:12:25;;;;;;;5.35;2.92;;;;;;;;;;5092509;28;20088;-65
2023/06/10 14:14:51;;;;;;;5.07;3.33;;;;;;;;;;5092742;28;20509;-65
2023/06/10 14:17:16;;;;;;;5.72;3.50;;;;;;;;;;5092587;28;20027;-65
2023/06/10 14:19:41;;;;;;;6.93;3.42;;;;;;;;;;5092425;28;20028;-65
2023/06/10 14:22:08;;;;;;;8.68;3.28;;;;;;;;;;5092637;28;20016;-65
2023/06/10 14:24:33;;;;;;;5.78;3.40;;;;;;;;;;5092741;28;20036;-65
2023/06/10 14:26:59;;;;;;;5.80;3.28;;;;;;;;;;5092169;28;20477;-65
2023/06/10 14:29:27;;;;;;;5.28;3.28;;;;;;;;;;5092630;28;20488;-65
2023/06/10 14:31:52;;;;;;;7.05;3.47;;;;;;;;;;5092610;28;20028;-65
2023/06/10 14:34:17;;;;;;;6.53;3.35;;;;;;;;;;5092581;28;20030;-65
2023/06/10 14:36:43;;;;;;;10.18;3.78;;;;;;;;;;5092755;28;20419;-65
2023/06/10 14:39:09;;;;;;;9.65;3.83;;;;;;;;;;5101211;28;20465;-65
2023/06/10 14:41:36;;;;;;;5.65;3.70;;;;;;;;;;5112637;28;20024;-66